Time;durP1;ratioP1;P1;durP2;ratioP2;P2;SDS_P1;SDS_P2;PMS_P1;PMS_P2;Temp;Humidity;BMP_temperature;BMP_pressure;BME280_temperature;BME280_humidity;BME280_pressure;Samples;Min_cycle;Max_cycle;Signal;HPM_P1;HPM_P2
2023/04/01 00:01:57;;;;;;;3.63;1.20;;;10.80;99.90;;;;;;5014568;28;20105;-50
2023/04/01 00:04:23;;;;;;;7.60;1.95;;;10.90;99.90;;;;;;5014963;28;20071;-46
2023/04/01 00:06:48;;;;;;;5.28;2.88;;;10.90;99.90;;;;;;5014941;28;20026;-47
2023/04/01 00:09:14;;;;;;;3.55;1.23;;;10.90;99.90;;;;;;5014938;28;20022;-48
2023/04/01 00:11:40;;;;;;;5.30;1.33;;;10.90;99.90;;;;;;4997235;28;20034;-47
2023/04/01 00:14:06;;;;;;;4.80;1.30;;;10.90;99.90;;;;;;5015058;28;20064;-50
2023/04/01 00:16:32;;;;;;;5.07;1.45;;;10.90;99.90;;;;;;5014635;28;20018;-47
2023/04/01 00:18:58;;;;;;;4.55;1.17;;;10.90;99.90;;;;;;5014626;28;20077;-47
2023/04/01 00:21:24;;;;;;;5.15;1.75;;;10.80;99.90;;;;;;5014479;28;20497;-51
2023/04/01 00:23:50;;;;;;;4.30;1.55;;;10.80;99.90;;;;;;4997093;28;20033;-51
2023/04/01 00:26:18;;;;;;;6.63;1.35;;;10.80;99.90;;;;;;4996911;28;20029;-48
2023/04/01 00:28:44;;;;;;;9.00;1.63;;;10.90;99.90;;;;;;5014552;28;20142;-50
2023/04/01 00:31:11;;;;;;;8.23;1.55;;;10.80;99.90;;;;;;5013712;28;20049;-47
2023/04/01 00:33:38;;;;;;;5.55;1.40;;;10.80;99.90;;;;;;5014314;28;20496;-48
2023/04/01 00:36:22;;;;;;;5.22;1.10;;;10.70;99.90;;;;;;5014038;28;20033;-46
2023/04/01 00:38:49;;;;;;;4.15;1.27;;;10.70;99.90;;;;;;5014266;28;20093;-49
2023/04/01 00:41:16;;;;;;;3.83;1.30;;;10.70;99.90;;;;;;5014267;28;20026;-48
2023/04/01 00:43:48;;;;;;;9.77;1.45;;;10.70;99.90;;;;;;4996634;28;20029;-46
2023/04/01 00:46:14;;;;;;;6.82;1.98;;;10.70;99.90;;;;;;5014057;28;20026;-51
2023/04/01 00:48:43;;;;;;;5.15;1.70;;;10.70;99.90;;;;;;5014169;28;20052;-47
2023/04/01 00:51:17;;;;;;;5.68;1.35;;;10.70;99.90;;;;;;5014197;28;20091;-46
2023/04/01 00:53:46;;;;;;;8.18;1.70;;;10.70;99.90;;;;;;5014702;28;20030;-44
2023/04/01 00:56:26;;;;;;;3.00;1.10;;;10.70;99.90;;;;;;5014294;28;20448;-46
2023/04/01 00:58:57;;;;;;;4.38;0.88;;;10.70;99.90;;;;;;4996784;28;20491;-45
2023/04/01 01:01:24;;;;;;;5.57;1.55;;;10.70;99.90;;;;;;4996715;28;20485;-49
2023/04/01 01:03:49;;;;;;;7.43;2.08;;;10.70;99.90;;;;;;4996078;28;20022;-48
2023/04/01 01:06:27;;;;;;;3.40;1.20;;;10.70;99.90;;;;;;4996055;28;20018;-51
2023/04/01 01:09:12;;;;;;;3.45;1.30;;;10.70;99.90;;;;;;5013688;28;20093;-47
2023/04/01 01:11:43;;;;;;;5.22;2.20;;;10.70;99.90;;;;;;5013520;28;20083;-43
2023/04/01 01:14:20;;;;;;;6.47;1.50;;;10.70;99.90;;;;;;5013768;28;20034;-45
2023/04/01 01:16:59;;;;;;;3.35;1.23;;;10.70;99.90;;;;;;5013581;28;20060;-48
2023/04/01 01:19:56;;;;;;;11.65;1.20;;;10.70;99.90;;;;;;5013733;28;20033;-46
2023/04/01 01:22:38;;;;;;;5.15;1.10;;;10.70;99.90;;;;;;5013402;28;20074;-50
2023/04/01 01:25:18;;;;;;;6.32;1.20;;;10.70;99.90;;;;;;4995878;28;20022;-46
2023/04/01 01:28:14;;;;;;;4.15;1.13;;;10.70;99.90;;;;;;4995836;28;20426;-51
2023/04/01 01:31:01;;;;;;;3.33;1.17;;;10.70;99.90;;;;;;5013355;28;20026;-47
2023/04/01 01:34:10;;;;;;;4.30;1.02;;;10.80;99.90;;;;;;5013371;28;20034;-50
2023/04/01 01:36:38;;;;;;;2.33;1.00;;;10.80;99.90;;;;;;5013211;28;20446;-49
2023/04/01 01:39:07;;;;;;;4.22;1.30;;;10.70;99.90;;;;;;5013125;28;20396;-49
2023/04/01 01:41:35;;;;;;;11.18;2.33;;;10.70;99.90;;;;;;5012902;28;20030;-49
2023/04/01 01:44:04;;;;;;;5.55;1.30;;;10.70;99.90;;;;;;4994665;28;20403;-47
2023/04/01 01:46:30;;;;;;;5.82;1.27;;;10.70;99.90;;;;;;5012999;28;20473;-48
2023/04/01 01:48:57;;;;;;;9.00;1.25;;;10.70;99.90;;;;;;5012904;28;20034;-49
2023/04/01 01:51:26;;;;;;;6.88;1.60;;;10.70;99.90;;;;;;5012789;28;20519;-48
2023/04/01 01:53:51;;;;;;;4.63;0.82;;;10.70;99.90;;;;;;4995218;28;20497;-49
2023/04/01 01:56:19;;;;;;;5.60;1.20;;;10.70;99.90;;;;;;5012831;28;20026;-51
2023/04/01 01:58:48;;;;;;;3.92;1.23;;;10.70;99.90;;;;;;5012921;28;20421;-46
2023/04/01 02:01:18;;;;;;;4.35;1.30;;;10.80;99.90;;;;;;5012875;28;20042;-48
2023/04/01 02:03:45;;;;;;;5.18;1.23;;;10.70;99.90;;;;;;5012592;28;20017;-48
2023/04/01 02:06:15;;;;;;;7.72;1.42;;;10.80;99.90;;;;;;5012868;28;20022;-45
2023/04/01 02:09:06;;;;;;;5.32;1.13;;;10.80;99.90;;;;;;5012953;28;20444;-48
2023/04/01 02:11:48;;;;;;;2.45;1.02;;;10.80;99.90;;;;;;5012983;28;20064;-48
2023/04/01 02:14:26;;;;;;;5.00;1.30;;;10.70;99.90;;;;;;5012954;28;20054;-44
2023/04/01 02:17:10;;;;;;;7.82;1.75;;;10.70;99.90;;;;;;5012921;28;20022;-45
2023/04/01 02:19:45;;;;;;;10.00;1.20;;;10.70;99.90;;;;;;4995125;28;20026;-53
2023/04/01 02:22:16;;;;;;;2.92;0.93;;;10.70;99.90;;;;;;4995135;28;20041;-47
2023/04/01 02:24:43;;;;;;;6.97;1.30;;;10.60;99.90;;;;;;5013049;28;20021;-45
2023/04/01 02:27:10;;;;;;;11.98;1.60;;;10.60;99.90;;;;;;5012777;28;20129;-48
2023/04/01 02:29:36;;;;;;;6.78;1.63;;;10.60;99.90;;;;;;5012443;28;20045;-45
2023/04/01 02:32:03;;;;;;;7.45;1.52;;;10.60;99.90;;;;;;5013654;28;20038;-46
2023/04/01 02:34:29;;;;;;;6.22;1.67;;;10.60;99.90;;;;;;4994965;28;20627;-46
2023/04/01 02:36:56;;;;;;;4.57;1.30;;;10.60;99.90;;;;;;5013046;28;20410;-46
2023/04/01 02:39:22;;;;;;;4.97;1.38;;;10.50;99.90;;;;;;5012508;28;20389;-46
2023/04/01 02:41:48;;;;;;;3.72;0.80;;;10.50;99.90;;;;;;5012844;28;20014;-47
2023/04/01 02:44:14;;;;;;;2.25;0.82;;;10.40;99.90;;;;;;5012726;28;20037;-47
2023/04/01 02:46:40;;;;;;;4.95;1.15;;;10.40;99.90;;;;;;5012610;28;20022;-44
2023/04/01 02:49:06;;;;;;;3.58;0.98;;;10.40;99.90;;;;;;4994604;28;20030;-46
2023/04/01 02:51:32;;;;;;;6.03;1.38;;;10.40;99.90;;;;;;5012025;28;20029;-48
2023/04/01 02:53:58;;;;;;;4.03;1.33;;;10.30;99.90;;;;;;5012009;28;20037;-46
2023/04/01 02:56:23;;;;;;;4.30;1.48;;;10.30;99.90;;;;;;5012034;28;20096;-48
2023/04/01 02:58:49;;;;;;;4.70;1.13;;;10.30;99.90;;;;;;5011898;28;20030;-45
2023/04/01 03:01:15;;;;;;;6.88;1.30;;;10.40;99.90;;;;;;5011868;28;20501;-45
2023/04/01 03:03:40;;;;;;;2.30;0.82;;;10.40;99.90;;;;;;5011580;28;20429;-45
2023/04/01 03:06:08;;;;;;;3.90;1.23;;;10.40;99.90;;;;;;5011696;28;20080;-45
2023/04/01 03:08:34;;;;;;;5.60;2.35;;;10.40;99.90;;;;;;5011947;28;20030;-46
2023/04/01 03:10:59;;;;;;;5.20;1.45;;;10.30;99.90;;;;;;5011684;28;20044;-46
2023/04/01 03:13:25;;;;;;;3.53;1.45;;;10.30;99.90;;;;;;5011882;28;20033;-48
2023/04/01 03:15:51;;;;;;;3.63;1.67;;;10.30;99.90;;;;;;5011770;28;20022;-48
2023/04/01 03:18:16;;;;;;;6.55;1.67;;;10.30;99.90;;;;;;4993862;28;20030;-51
2023/04/01 03:20:42;;;;;;;8.40;1.58;;;10.30;99.90;;;;;;5011557;28;20092;-46
2023/04/01 03:23:08;;;;;;;10.70;1.40;;;10.30;99.90;;;;;;5011602;28;20489;-46
2023/04/01 03:25:33;;;;;;;7.05;1.25;;;10.30;99.90;;;;;;5011459;28;20026;-46
2023/04/01 03:27:59;;;;;;;4.07;1.30;;;10.40;99.90;;;;;;4993706;28;20108;-47
2023/04/01 03:30:25;;;;;;;10.65;2.22;;;10.40;99.90;;;;;;5011874;28;20073;-47
2023/04/01 03:32:51;;;;;;;6.65;1.15;;;10.40;99.90;;;;;;5011477;28;20489;-50
2023/04/01 03:35:16;;;;;;;3.55;2.00;;;10.40;99.90;;;;;;4993923;28;20042;-44
2023/04/01 03:37:42;;;;;;;6.88;1.30;;;10.40;99.90;;;;;;5011415;28;20030;-45
2023/04/01 03:40:08;;;;;;;4.78;1.17;;;10.40;99.90;;;;;;4993889;28;20026;-47
2023/04/01 03:42:34;;;;;;;4.25;1.27;;;10.40;99.90;;;;;;5011839;28;20033;-47
2023/04/01 03:45:00;;;;;;;7.40;1.83;;;10.40;99.90;;;;;;5011811;28;20457;-50
2023/04/01 03:47:25;;;;;;;6.25;1.88;;;10.40;99.90;;;;;;5010995;28;20034;-51
2023/04/01 03:49:51;;;;;;;7.45;1.10;;;10.50;99.90;;;;;;5011217;28;20088;-46
2023/04/01 03:52:16;;;;;;;3.17;1.48;;;10.50;99.90;;;;;;5011118;28;20033;-46
2023/04/01 03:54:42;;;;;;;3.33;1.30;;;10.50;99.90;;;;;;5011315;28;20034;-50
2023/04/01 03:57:07;;;;;;;6.30;1.33;;;10.40;99.90;;;;;;5011676;28;20367;-46
2023/04/01 03:59:33;;;;;;;2.53;1.00;;;10.40;99.90;;;;;;5012558;28;20452;-48
2023/04/01 04:01:59;;;;;;;4.18;1.63;;;10.40;99.90;;;;;;5011512;28;20398;-45
2023/04/01 04:04:25;;;;;;;7.53;1.13;;;10.40;99.90;;;;;;5011711;28;20574;-45
2023/04/01 04:06:51;;;;;;;4.85;1.30;;;10.40;99.90;;;;;;5013280;28;20030;-47
2023/04/01 04:09:16;;;;;;;4.72;1.50;;;10.50;99.90;;;;;;5015923;28;20048;-47
2023/04/01 04:11:42;;;;;;;3.17;1.10;;;10.50;99.90;;;;;;5015862;28;20093;-48
2023/04/01 04:14:07;;;;;;;4.78;1.25;;;10.40;99.90;;;;;;5015843;28;20210;-47
2023/04/01 04:16:36;;;;;;;2.47;1.20;;;10.50;99.90;;;;;;5015451;28;20050;-47
2023/04/01 04:19:02;;;;;;;5.63;1.38;;;10.40;99.90;;;;;;5016627;28;20026;-49
2023/04/01 04:21:28;;;;;;;3.05;1.17;;;10.50;99.90;;;;;;4997745;28;20057;-47
2023/04/01 04:23:53;;;;;;;4.18;1.13;;;10.50;99.90;;;;;;5015201;28;20053;-46
2023/04/01 04:26:19;;;;;;;6.30;1.73;;;10.50;99.90;;;;;;5014957;28;20075;-48
2023/04/01 04:28:44;;;;;;;3.63;0.93;;;10.50;99.90;;;;;;5014935;28;20022;-47
2023/04/01 04:31:10;;;;;;;5.20;1.52;;;10.50;99.90;;;;;;5014740;28;20022;-46
2023/04/01 04:33:36;;;;;;;2.05;1.05;;;10.60;99.90;;;;;;5014740;28;20026;-46
2023/04/01 04:36:02;;;;;;;6.53;1.40;;;10.50;99.90;;;;;;5014569;28;20119;-49
2023/04/01 04:38:28;;;;;;;5.15;1.63;;;10.50;99.90;;;;;;5014902;28;20037;-47
2023/04/01 04:40:54;;;;;;;8.52;1.77;;;10.50;99.90;;;;;;4997479;28;20018;-45
2023/04/01 04:43:20;;;;;;;7.57;1.30;;;10.60;99.90;;;;;;4996965;28;20524;-47
2023/04/01 04:45:46;;;;;;;2.35;0.90;;;10.60;99.90;;;;;;5014814;28;20034;-46
2023/04/01 04:48:18;;;;;;;5.18;1.20;;;10.60;99.90;;;;;;5014180;28;20025;-49
2023/04/01 04:50:50;;;;;;;4.18;1.30;;;10.60;99.90;;;;;;5014388;28;20037;-49
2023/04/01 04:53:17;;;;;;;4.38;1.33;;;10.60;99.90;;;;;;5014063;28;20071;-47
2023/04/01 04:55:46;;;;;;;6.43;1.58;;;10.60;99.90;;;;;;5014054;28;20040;-48
2023/04/01 04:58:12;;;;;;;5.18;1.50;;;10.60;99.90;;;;;;4996301;28;20030;-48
2023/04/01 05:00:38;;;;;;;1.75;0.82;;;10.60;99.90;;;;;;5014078;28;20524;-47
2023/04/01 05:03:03;;;;;;;4.07;1.30;;;10.60;99.90;;;;;;5013482;28;20109;-46
2023/04/01 05:05:29;;;;;;;2.15;0.85;;;10.60;99.90;;;;;;5013783;28;20061;-49
2023/04/01 05:07:54;;;;;;;6.82;1.33;;;10.60;99.90;;;;;;4996129;28;20022;-51
2023/04/01 05:10:20;;;;;;;5.45;1.20;;;10.50;99.90;;;;;;5013812;28;20482;-46
2023/04/01 05:12:46;;;;;;;2.70;1.00;;;10.50;99.90;;;;;;5013491;28;20505;-47
2023/04/01 05:15:11;;;;;;;2.67;0.85;;;10.50;99.90;;;;;;5013519;28;20405;-46
2023/04/01 05:17:37;;;;;;;3.10;0.80;;;10.50;99.90;;;;;;5013384;28;20025;-47
2023/04/01 05:20:03;;;;;;;1.88;1.30;;;10.50;99.90;;;;;;5013624;28;20033;-45
2023/04/01 05:22:29;;;;;;;3.28;0.93;;;10.50;99.90;;;;;;5013500;28;20306;-46
2023/04/01 05:24:55;;;;;;;6.82;2.47;;;10.50;99.90;;;;;;5013283;28;20025;-46
2023/04/01 05:27:20;;;;;;;2.47;1.30;;;10.50;99.90;;;;;;5013580;28;20486;-47
2023/04/01 05:29:46;;;;;;;4.70;1.17;;;10.50;99.90;;;;;;5013571;28;20036;-47
2023/04/01 05:32:11;;;;;;;4.55;1.20;;;10.50;99.90;;;;;;5013251;28;20394;-51
2023/04/01 05:34:40;;;;;;;4.28;1.23;;;10.50;99.90;;;;;;5013261;28;20030;-52
2023/04/01 05:37:07;;;;;;;4.32;1.15;;;10.50;99.90;;;;;;5013134;28;20375;-49
2023/04/01 05:39:37;;;;;;;5.03;1.60;;;10.40;99.90;;;;;;4995826;28;20022;-46
2023/04/01 05:42:03;;;;;;;2.83;0.90;;;10.40;99.90;;;;;;5013056;28;20022;-46
2023/04/01 05:44:28;;;;;;;5.63;1.73;;;10.40;99.90;;;;;;4995543;28;20116;-45
2023/04/01 05:46:54;;;;;;;7.50;1.77;;;10.40;99.90;;;;;;5013204;28;20022;-50
2023/04/01 05:49:19;;;;;;;6.03;1.17;;;10.40;99.90;;;;;;5012915;28;20029;-46
2023/04/01 05:51:45;;;;;;;2.90;1.10;;;10.40;99.90;;;;;;5012790;28;20021;-50
2023/04/01 05:54:10;;;;;;;4.47;0.90;;;10.40;99.90;;;;;;5012803;28;20030;-46
2023/04/01 05:56:36;;;;;;;6.90;1.30;;;10.40;99.90;;;;;;5012736;28;20030;-50
2023/04/01 05:59:01;;;;;;;5.57;1.08;;;10.40;99.90;;;;;;4994958;28;20045;-46
2023/04/01 06:01:27;;;;;;;4.60;1.20;;;10.40;99.90;;;;;;5012543;28;20037;-47
2023/04/01 06:03:52;;;;;;;3.72;1.15;;;10.40;99.90;;;;;;4994759;28;20486;-45
2023/04/01 06:06:27;;;;;;;4.72;1.15;;;10.40;99.90;;;;;;4994988;28;20508;-47
2023/04/01 06:08:55;;;;;;;2.92;0.75;;;10.40;99.90;;;;;;5012516;28;20026;-48
2023/04/01 06:11:36;;;;;;;3.55;0.85;;;10.50;99.90;;;;;;5012451;28;20061;-46
2023/04/01 06:14:33;;;;;;;2.45;0.85;;;10.50;99.90;;;;;;4994751;28;20026;-44
2023/04/01 06:17:17;;;;;;;1.58;0.80;;;10.50;99.90;;;;;;4994704;28;20026;-46
2023/04/01 06:19:45;;;;;;;2.15;0.85;;;10.50;99.90;;;;;;5012502;28;20022;-47
2023/04/01 06:22:27;;;;;;;1.38;0.70;;;10.50;99.90;;;;;;5012342;28;20437;-46
2023/04/01 06:25:10;;;;;;;6.22;1.15;;;10.50;99.90;;;;;;4994673;28;20022;-44
2023/04/01 06:27:55;;;;;;;1.48;0.88;;;10.50;99.90;;;;;;5012099;28;20030;-47
2023/04/01 06:30:38;;;;;;;1.70;0.77;;;10.60;99.90;;;;;;4994270;28;20065;-49
2023/04/01 06:33:29;;;;;;;1.25;0.88;;;10.60;99.90;;;;;;5012285;28;20029;-49
2023/04/01 06:36:32;;;;;;;1.88;0.77;;;10.60;99.90;;;;;;5012104;28;20048;-47
2023/04/01 06:39:16;;;;;;;3.10;0.75;;;10.60;99.90;;;;;;5012062;28;20026;-49
2023/04/01 06:41:47;;;;;;;3.53;0.88;;;10.70;99.90;;;;;;5011983;28;20053;-49
2023/04/01 06:44:42;;;;;;;0.90;0.50;;;10.60;99.90;;;;;;4994465;28;20026;-47
2023/04/01 06:47:20;;;;;;;2.30;1.23;;;10.60;99.90;;;;;;5012061;28;20545;-51
2023/04/01 06:49:58;;;;;;;2.40;0.80;;;10.60;99.90;;;;;;5012140;28;20238;-46
2023/04/01 06:52:40;;;;;;;3.40;0.80;;;10.60;99.90;;;;;;4994202;28;20026;-49
2023/04/01 06:55:32;;;;;;;3.22;1.02;;;10.60;99.90;;;;;;4994521;28;20033;-47
2023/04/01 06:58:00;;;;;;;1.20;0.80;;;10.60;99.90;;;;;;5011800;28;20114;-47
2023/04/01 07:00:42;;;;;;;4.40;1.05;;;10.60;99.90;;;;;;5011887;28;20022;-46
2023/04/01 07:03:18;;;;;;;1.35;0.80;;;10.60;99.90;;;;;;5011706;28;20014;-48
2023/04/01 07:05:44;;;;;;;4.00;0.98;;;10.70;99.90;;;;;;5011927;28;20026;-49
2023/04/01 07:08:15;;;;;;;2.67;0.63;;;10.60;99.90;;;;;;4994445;28;20486;-48
2023/04/01 07:11:04;;;;;;;0.85;0.85;;;10.70;99.90;;;;;;5012016;28;20030;-52
2023/04/01 07:13:41;;;;;;;1.80;0.77;;;10.70;99.90;;;;;;5012163;28;20541;-48
2023/04/01 07:16:18;;;;;;;1.90;0.93;;;10.70;99.90;;;;;;5011877;28;20029;-48
2023/04/01 07:19:05;;;;;;;0.70;0.50;;;10.70;99.90;;;;;;5011626;28;20065;-49
2023/04/01 07:21:41;;;;;;;3.10;1.20;;;10.80;99.90;;;;;;5012068;28;20080;-46
2023/04/01 07:24:33;;;;;;;1.20;0.80;;;10.80;99.90;;;;;;5012543;28;20105;-46
2023/04/01 07:26:59;;;;;;;4.38;1.05;;;10.80;99.90;;;;;;5012214;28;20100;-50
2023/04/01 07:29:26;;;;;;;2.33;0.60;;;10.80;99.90;;;;;;4994570;28;20057;-50
2023/04/01 07:32:20;;;;;;;3.03;1.33;;;10.90;99.90;;;;;;5012126;28;20054;-46
2023/04/01 07:35:13;;;;;;;1.90;0.60;;;11.00;99.90;;;;;;5011563;28;20477;-46
2023/04/01 07:38:04;;;;;;;4.40;0.70;;;11.00;99.90;;;;;;5007668;28;20109;-46
2023/04/01 07:40:42;;;;;;;2.25;0.70;;;11.00;99.90;;;;;;5008989;28;20110;-46
2023/04/01 07:43:26;;;;;;;1.95;0.52;;;11.10;99.90;;;;;;5014206;28;20022;-46
2023/04/01 07:46:06;;;;;;;6.30;0.88;;;11.10;99.90;;;;;;5014212;28;20525;-46
2023/04/01 07:48:47;;;;;;;3.08;0.70;;;11.10;99.90;;;;;;5014540;28;20294;-46
2023/04/01 07:51:24;;;;;;;1.45;0.40;;;11.20;99.90;;;;;;5013450;28;20034;-48
2023/04/01 07:53:53;;;;;;;1.52;0.65;;;11.20;99.90;;;;;;5013431;28;20048;-48
2023/04/01 07:56:46;;;;;;;3.50;0.70;;;11.20;99.90;;;;;;5014769;28;20033;-50
2023/04/01 07:59:29;;;;;;;0.95;0.80;;;11.30;99.90;;;;;;4997377;28;20034;-48
2023/04/01 08:02:12;;;;;;;0.88;0.88;;;11.30;99.90;;;;;;4995173;28;20022;-46
2023/04/01 08:05:01;;;;;;;1.17;0.55;;;11.40;99.90;;;;;;4995388;28;20026;-47
2023/04/01 08:07:40;;;;;;;4.22;0.68;;;11.40;99.90;;;;;;4995330;28;20332;-52
2023/04/01 08:10:25;;;;;;;2.05;0.68;;;11.40;99.90;;;;;;4997073;28;20034;-46
2023/04/01 08:13:17;;;;;;;1.27;0.60;;;11.40;99.90;;;;;;5014136;28;20076;-48
2023/04/01 08:16:08;;;;;;;1.35;0.50;;;11.40;99.90;;;;;;5014530;28;20066;-49
2023/04/01 08:18:54;;;;;;;1.23;0.47;;;11.40;99.90;;;;;;4996778;28;20103;-49
2023/04/01 08:21:42;;;;;;;3.13;0.60;;;11.40;99.90;;;;;;5014307;28;20026;-47
2023/04/01 08:24:40;;;;;;;0.85;0.85;;;11.40;99.90;;;;;;5014699;28;20049;-47
2023/04/01 08:27:29;;;;;;;0.98;0.80;;;11.40;99.90;;;;;;5006440;28;20038;-47
2023/04/01 08:30:25;;;;;;;2.10;0.60;;;11.40;99.90;;;;;;4982344;28;20571;-47
2023/04/01 08:32:54;;;;;;;;;;;11.40;99.90;;;;;;4996958;28;20022;-49
2023/04/01 08:35:38;;;;;;;0.98;0.45;;;11.40;99.90;;;;;;5014143;28;20388;-47
2023/04/01 08:38:32;;;;;;;1.45;0.40;;;11.40;99.90;;;;;;5014518;28;20030;-47
2023/04/01 08:41:22;;;;;;;0.73;0.60;;;11.30;99.90;;;;;;4995734;28;20030;-48
2023/04/01 08:43:55;;;;;;;0.70;0.38;;;11.30;99.90;;;;;;4996767;28;20028;-47
2023/04/01 08:46:39;;;;;;;0.50;0.50;;;11.30;99.90;;;;;;5001586;28;20030;-52
2023/04/01 08:49:16;;;;;;;1.35;1.02;;;11.20;99.90;;;;;;5014412;28;20025;-49
2023/04/01 08:52:03;;;;;;;1.10;0.60;;;11.30;99.90;;;;;;5014238;28;20057;-45
2023/04/01 08:55:04;;;;;;;1.85;0.80;;;11.30;99.90;;;;;;5013878;28;20428;-48
2023/04/01 08:58:00;;;;;;;0.57;0.50;;;11.30;99.90;;;;;;5003085;28;20046;-47
2023/04/01 09:00:38;;;;;;;0.85;0.63;;;11.40;99.90;;;;;;4996501;28;20030;-47
2023/04/01 09:03:37;;;;;;;1.65;0.50;;;11.40;99.90;;;;;;4996266;28;20096;-51
2023/04/01 09:06:26;;;;;;;1.15;0.50;;;11.30;99.90;;;;;;5013877;28;20474;-48
2023/04/01 09:09:14;;;;;;;0.63;0.40;;;11.30;99.90;;;;;;5014097;28;20022;-48
2023/04/01 09:12:10;;;;;;;0.73;0.40;;;11.30;99.90;;;;;;5013843;28;20029;-50
2023/04/01 09:14:56;;;;;;;;;;;11.40;99.90;;;;;;5014141;28;20030;-53
2023/04/01 09:17:22;;;;;;;0.87;0.70;;;11.50;99.90;;;;;;4995633;28;19936;-51
2023/04/01 09:20:13;;;;;;;0.40;0.40;;;11.50;99.90;;;;;;4996026;28;20117;-50
2023/04/01 09:23:10;;;;;;;2.30;0.70;;;11.50;99.90;;;;;;5013307;28;20022;-48
2023/04/01 09:26:07;;;;;;;1.38;0.77;;;11.50;99.90;;;;;;5013458;28;20069;-47
2023/04/01 09:29:05;;;;;;;2.45;0.40;;;11.50;99.90;;;;;;5013532;28;20030;-51
2023/04/01 09:32:01;;;;;;;0.80;0.40;;;11.60;99.90;;;;;;5012962;28;20100;-43
2023/04/01 09:35:10;;;;;;;0.73;0.40;;;11.60;99.90;;;;;;5013259;28;20025;-49
2023/04/01 09:37:53;;;;;;;1.15;0.40;;;11.60;99.90;;;;;;4995694;28;20172;-49
2023/04/01 09:40:30;;;;;;;2.60;0.65;;;11.50;99.90;;;;;;5008996;28;20026;-46
2023/04/01 09:43:10;;;;;;;0.47;0.47;;;11.50;99.90;;;;;;4985467;28;20025;-45
2023/04/01 09:46:06;;;;;;;2.55;0.50;;;11.50;99.90;;;;;;5013062;28;20056;-45
2023/04/01 09:48:53;;;;;;;;;;;11.40;99.90;;;;;;5012676;28;20485;-52
2023/04/01 09:51:43;;;;;;;0.30;0.30;;;11.40;99.90;;;;;;5012889;28;19905;-53
2023/04/01 09:54:45;;;;;;;0.60;0.60;;;11.40;99.90;;;;;;5012930;28;20037;-47
2023/04/01 09:57:33;;;;;;;1.20;1.10;;;11.40;99.90;;;;;;4995009;28;20030;-51
2023/04/01 10:00:20;;;;;;;26.52;16.52;;;11.40;99.90;;;;;;4995520;28;20049;-48
2023/04/01 10:03:17;;;;;;;0.57;0.57;;;11.40;99.90;;;;;;5010583;28;20030;-56
2023/04/01 10:06:08;;;;;;;0.93;0.50;;;11.40;99.90;;;;;;5011425;28;20092;-49
2023/04/01 10:08:57;;;;;;;0.52;0.40;;;11.40;99.90;;;;;;4995061;28;20033;-51
2023/04/01 10:11:51;;;;;;;0.70;0.43;;;11.50;99.90;;;;;;5012157;28;20393;-52
2023/04/01 10:14:29;;;;;;;0.30;0.30;;;11.50;99.90;;;;;;4995144;28;20393;-46
2023/04/01 10:17:28;;;;;;;1.08;0.60;;;11.60;99.90;;;;;;5012403;28;20056;-47
2023/04/01 10:20:31;;;;;;;0.52;0.30;;;11.60;99.90;;;;;;4973514;28;20051;-47
2023/04/01 10:23:20;;;;;;;0.30;0.30;;;11.70;99.90;;;;;;4991761;28;20393;-45
2023/04/01 10:26:16;;;;;;;0.63;0.40;;;11.70;99.90;;;;;;4992747;28;20413;-45
2023/04/01 10:29:02;;;;;;;0.20;0.20;;;11.70;99.90;;;;;;4974324;28;20033;-50
2023/04/01 10:31:48;;;;;;;0.93;0.30;;;11.70;99.90;;;;;;4992681;28;20378;-46
2023/04/01 10:34:34;;;;;;;0.35;0.35;;;11.70;99.90;;;;;;4981547;28;20069;-47
2023/04/01 10:37:22;;;;;;;1.05;0.73;;;11.70;99.90;;;;;;5008569;28;20192;-49
2023/04/01 10:40:00;;;;;;;1.75;0.82;;;11.80;99.90;;;;;;4994337;28;20026;-48
2023/04/01 10:43:02;;;;;;;0.50;0.50;;;11.80;99.90;;;;;;4993143;28;20026;-49
2023/04/01 10:46:05;;;;;;;2.90;0.50;;;11.90;99.90;;;;;;5011795;28;20072;-49
2023/04/01 10:48:59;;;;;;;1.95;0.30;;;11.90;99.90;;;;;;5011771;28;20022;-47
2023/04/01 10:51:51;;;;;;;0.20;0.20;;;12.00;99.90;;;;;;5011753;28;20026;-51
2023/04/01 10:54:42;;;;;;;0.20;0.20;;;12.00;99.90;;;;;;4974857;28;20041;-45
2023/04/01 10:57:46;;;;;;;0.32;0.30;;;12.10;99.90;;;;;;4990259;28;20081;-50
2023/04/01 11:00:32;;;;;;;0.55;0.55;;;12.10;99.90;;;;;;4974760;28;20038;-47
2023/04/01 11:03:20;;;;;;;0.20;0.20;;;12.10;99.90;;;;;;5002970;28;20026;-46
2023/04/01 11:05:58;;;;;;;0.30;0.30;;;12.00;99.90;;;;;;5011622;28;20405;-47
2023/04/01 11:08:45;;;;;;;0.30;0.30;;;12.10;99.90;;;;;;5005237;28;20128;-49
2023/04/01 11:11:39;;;;;;;0.30;0.30;;;12.10;99.90;;;;;;5011465;28;20347;-48
2023/04/01 11:14:26;;;;;;;0.20;0.20;;;12.10;99.90;;;;;;5011605;28;20053;-48
2023/04/01 11:17:16;;;;;;;1.55;0.35;;;12.20;99.90;;;;;;5011119;28;20037;-44
2023/04/01 11:19:45;;;;;;;0.20;0.20;;;12.10;99.90;;;;;;5012000;28;20034;-45
2023/04/01 11:22:41;;;;;;;1.45;0.45;;;12.20;99.90;;;;;;5011813;28;20029;-46
2023/04/01 11:25:51;;;;;;;0.30;0.30;;;12.10;99.90;;;;;;5011067;28;20060;-47
2023/04/01 11:28:43;;;;;;;0.93;0.40;;;12.10;99.90;;;;;;4998674;28;20029;-49
2023/04/01 11:31:29;;;;;;;0.32;0.32;;;12.10;99.90;;;;;;5010184;28;20018;-50
2023/04/01 11:34:19;;;;;;;0.28;0.28;;;12.10;99.90;;;;;;5011202;28;20026;-45
2023/04/01 11:37:00;;;;;;;1.00;0.40;;;12.10;99.90;;;;;;5011962;28;20401;-47
2023/04/01 11:39:57;;;;;;;0.30;0.30;;;12.10;99.90;;;;;;5007664;28;20030;-45
2023/04/01 11:42:40;;;;;;;16.80;10.57;;;12.10;99.90;;;;;;5011291;28;20096;-52
2023/04/01 11:45:28;;;;;;;16.02;11.18;;;12.10;99.90;;;;;;4993548;28;20100;-45
2023/04/01 11:48:02;;;;;;;0.22;0.22;;;12.10;99.90;;;;;;5011399;28;20049;-46
2023/04/01 11:50:42;;;;;;;1.33;0.40;;;12.00;99.90;;;;;;5011505;28;20025;-45
2023/04/01 11:53:31;;;;;;;0.20;0.20;;;12.00;99.90;;;;;;5011274;28;20038;-46
2023/04/01 11:56:02;;;;;;;0.40;0.40;;;12.00;99.90;;;;;;5010749;28;20041;-48
2023/04/01 11:58:56;;;;;;;0.85;0.35;;;12.00;99.90;;;;;;5011363;28;20121;-48
2023/04/01 12:01:54;;;;;;;0.77;0.30;;;12.00;99.90;;;;;;5011208;28;20026;-48
2023/04/01 12:04:48;;;;;;;0.30;0.30;;;12.00;99.90;;;;;;4967580;28;20049;-43
2023/04/01 12:07:45;;;;;;;0.52;0.40;;;11.90;99.90;;;;;;5011311;28;20018;-46
2023/04/01 12:10:28;;;;;;;0.47;0.40;;;11.90;99.90;;;;;;5011526;28;20014;-47
2023/04/01 12:13:02;;;;;;;0.40;0.40;;;12.00;99.90;;;;;;5011013;28;20026;-49
2023/04/01 12:15:48;;;;;;;0.22;0.22;;;11.90;99.90;;;;;;5011272;28;20021;-57
2023/04/01 12:18:22;;;;;;;;;;;11.90;99.90;;;;;;5011463;28;20030;-47
2023/04/01 12:20:53;;;;;;;1.38;0.38;;;11.80;99.90;;;;;;5010849;28;19953;-49
2023/04/01 12:23:41;;;;;;;0.40;0.40;;;11.80;99.90;;;;;;5011007;28;20014;-48
2023/04/01 12:26:23;;;;;;;0.30;0.30;;;11.90;99.90;;;;;;5011119;28;20281;-45
2023/04/01 12:28:54;;;;;;;0.40;0.40;;;12.00;99.90;;;;;;5013821;28;20037;-45
2023/04/01 12:31:43;;;;;;;0.30;0.30;;;12.00;99.90;;;;;;5014219;28;20117;-50
2023/04/01 12:34:35;;;;;;;0.50;0.50;;;12.10;99.90;;;;;;4993579;28;20084;-53
2023/04/01 12:37:18;;;;;;;0.57;0.30;;;12.10;99.90;;;;;;5014362;28;20033;-49
2023/04/01 12:40:06;;;;;;;0.20;0.20;;;12.20;99.90;;;;;;5014271;28;20111;-52
2023/04/01 12:42:31;;;;;;;1.38;1.08;;;12.30;99.90;;;;;;5013872;28;20072;-52
2023/04/01 12:45:20;;;;;;;0.30;0.30;;;12.30;99.90;;;;;;5014380;28;20022;-54
2023/04/01 12:47:49;;;;;;;0.30;0.30;;;12.30;99.90;;;;;;5013924;28;20034;-48
2023/04/01 12:50:26;;;;;;;0.30;0.30;;;12.30;99.90;;;;;;4996556;28;20028;-52
2023/04/01 12:53:10;;;;;;;0.43;0.43;;;12.30;99.90;;;;;;5014170;28;20437;-50
2023/04/01 12:55:38;;;;;;;0.50;0.30;;;12.20;99.90;;;;;;5013973;28;20030;-51
2023/04/01 12:58:31;;;;;;;0.52;0.30;;;12.20;99.90;;;;;;5013870;28;20069;-52
2023/04/01 13:01:08;;;;;;;0.40;0.40;;;12.10;99.90;;;;;;5013672;28;20022;-51
2023/04/01 13:04:00;;;;;;;1.15;0.40;;;12.10;99.90;;;;;;5013861;28;20073;-51
2023/04/01 13:06:46;;;;;;;0.20;0.20;;;11.90;99.90;;;;;;5013616;28;20648;-53
2023/04/01 13:09:47;;;;;;;0.40;0.40;;;11.90;99.90;;;;;;5013971;28;20446;-49
2023/04/01 13:12:49;;;;;;;0.30;0.30;;;11.90;99.90;;;;;;5013432;28;20525;-55
2023/04/01 13:15:55;;;;;;;0.65;0.40;;;11.90;99.90;;;;;;5015083;28;20101;-52
2023/04/01 13:18:21;;;;;;;0.50;0.40;;;11.90;99.90;;;;;;5012653;28;20034;-47
2023/04/01 13:21:13;;;;;;;25.80;14.35;;;11.90;99.90;;;;;;4996927;28;20508;-47
2023/04/01 13:24:04;;;;;;;15.02;9.20;;;11.90;99.90;;;;;;4996582;28;20021;-51
2023/04/01 13:26:58;;;;;;;1.55;1.45;;;12.00;99.90;;;;;;5015702;28;20026;-46
2023/04/01 13:29:37;;;;;;;0.40;0.40;;;12.10;99.90;;;;;;5015015;28;20116;-44
2023/04/01 13:32:19;;;;;;;0.45;0.30;;;12.10;99.90;;;;;;4995731;28;20026;-48
2023/04/01 13:35:08;;;;;;;0.40;0.40;;;12.20;99.90;;;;;;5012793;28;20105;-46
2023/04/01 13:37:58;;;;;;;0.50;0.50;;;12.20;99.90;;;;;;4995771;28;20088;-48
2023/04/01 13:40:35;;;;;;;0.70;0.70;;;12.30;99.90;;;;;;5011658;28;20088;-50
2023/04/01 13:43:38;;;;;;;0.43;0.43;;;12.50;99.90;;;;;;5013867;28;20018;-51